createdAt,value
2022-08-22T00:00:14.283Z,62.38
2022-08-22T00:02:54.721Z,59.59
2022-08-22T00:03:09.681Z,60.02
2022-08-22T00:03:12.643Z,50.14
2022-08-22T00:03:15.146Z,61.39
2022-08-22T00:06:09.924Z,63.42
2022-08-22T00:08:57.932Z,63.12
2022-08-22T00:11:46.493Z,63.43
2022-08-22T00:14:25.578Z,63.72
2022-08-22T00:17:09.814Z,63.62
2022-08-22T00:19:55.496Z,63.33
2022-08-22T00:22:39.095Z,63.56
2022-08-22T00:25:25.943Z,63.77
2022-08-22T00:28:07.986Z,63.69
2022-08-22T00:30:45.160Z,64.12
2022-08-22T00:33:22.267Z,64.77
2022-08-22T00:35:57.135Z,64.79
2022-08-22T00:38:32.729Z,65.00
2022-08-22T00:41:33.782Z,65.65
2022-08-22T00:44:12.193Z,65.08
2022-08-22T00:47:03.679Z,65.16
2022-08-22T00:50:03.541Z,65.39
2022-08-22T00:52:53.900Z,65.63
2022-08-22T00:55:53.487Z,65.76
2022-08-22T00:58:45.144Z,65.85
2022-08-22T01:01:14.493Z,65.40
2022-08-22T01:03:49.993Z,65.50
2022-08-22T01:06:22.326Z,65.47
2022-08-22T01:09:00.223Z,65.81
2022-08-22T01:11:54.557Z,65.50
2022-08-22T01:14:47.575Z,65.80
2022-08-22T01:17:51.421Z,65.54
2022-08-22T01:20:54.719Z,65.78
2022-08-22T01:23:51.227Z,65.99
2022-08-22T01:26:50.551Z,66.41
2022-08-22T01:29:54.903Z,66.29
2022-08-22T01:32:57.148Z,66.00
2022-08-22T01:35:47.325Z,65.96
2022-08-22T01:38:32.969Z,66.27
2022-08-22T01:41:25.273Z,66.63
2022-08-22T01:44:01.332Z,66.46
2022-08-22T01:46:44.569Z,66.63
2022-08-22T01:49:25.061Z,66.60
2022-08-22T01:52:19.496Z,66.73
2022-08-22T01:55:00.749Z,66.95
2022-08-22T01:57:27.927Z,66.54
2022-08-22T01:59:59.218Z,67.00
2022-08-22T02:03:02.645Z,67.45
2022-08-22T02:05:45.394Z,67.17
2022-08-22T02:08:25.566Z,67.00
2022-08-22T02:11:09.423Z,67.14
2022-08-22T02:14:00.764Z,67.03
2022-08-22T02:16:37.945Z,67.09
2022-08-22T02:19:10.094Z,67.63
2022-08-22T02:21:42.951Z,67.47
2022-08-22T02:24:22.711Z,67.25
2022-08-22T02:27:22.801Z,67.54
2022-08-22T02:30:06.097Z,67.51
2022-08-22T02:33:19.355Z,67.30
2022-08-22T02:35:56.200Z,67.53
2022-08-22T02:38:36.644Z,67.72
2022-08-22T02:41:29.155Z,68.14
2022-08-22T02:44:20.983Z,68.36
2022-08-22T02:47:08.142Z,68.50
2022-08-22T02:49:44.034Z,68.25
2022-08-22T02:52:21.244Z,67.88
2022-08-22T02:54:55.400Z,68.02
2022-08-22T02:57:31.660Z,68.05
2022-08-22T03:00:31.945Z,68.22
2022-08-22T03:02:59.441Z,68.41
2022-08-22T03:05:36.639Z,68.89
2022-08-22T03:08:12.989Z,69.39
2022-08-22T03:10:45.288Z,69.17
2022-08-22T03:13:18.384Z,69.36
2022-08-22T03:15:54.787Z,69.02
2022-08-22T03:18:53.602Z,68.89
2022-08-22T03:21:41.549Z,69.05
2022-08-22T03:24:33.192Z,69.54
2022-08-22T03:27:10.339Z,69.42
2022-08-22T03:29:42.794Z,69.15
2022-08-22T03:32:22.048Z,69.22
2022-08-22T03:35:01.530Z,69.54
2022-08-22T03:37:36.800Z,69.32
2022-08-22T03:40:29.716Z,69.09
2022-08-22T03:43:39.232Z,68.70
2022-08-22T03:46:24.297Z,69.21
2022-08-22T03:49:36.591Z,69.79
2022-08-22T03:52:24.616Z,69.44
2022-08-22T03:55:13.855Z,69.25
2022-08-22T03:57:50.041Z,69.34
2022-08-22T04:00:21.751Z,69.69
2022-08-22T04:03:17.708Z,69.65
2022-08-22T04:06:11.517Z,69.33
2022-08-22T04:09:11.437Z,69.22
2022-08-22T04:11:53.433Z,69.24
2022-08-22T04:14:43.890Z,69.38
2022-08-22T04:17:47.661Z,69.52
2022-08-22T04:20:36.223Z,69.53
2022-08-22T04:23:35.456Z,69.62
2022-08-22T04:26:21.238Z,69.71
2022-08-22T04:29:02.553Z,70.01
2022-08-22T04:31:47.459Z,69.80
2022-08-22T04:34:26.317Z,69.97
2022-08-22T04:37:04.158Z,70.01
2022-08-22T04:39:45.715Z,69.86
2022-08-22T04:42:33.048Z,70.34
2022-08-22T04:45:14.047Z,70.28
2022-08-22T04:47:53.955Z,70.20
2022-08-22T04:50:34.669Z,70.15
2022-08-22T04:53:27.019Z,70.49
2022-08-22T04:56:19.838Z,70.14
2022-08-22T04:59:00.136Z,70.05
2022-08-22T05:01:45.598Z,69.91
2022-08-22T05:04:28.495Z,69.93
2022-08-22T05:07:16.576Z,69.76
2022-08-22T05:09:47.166Z,69.76
2022-08-22T05:12:19.119Z,69.95
2022-08-22T05:14:51.961Z,69.91
2022-08-22T05:17:23.903Z,69.68
2022-08-22T05:19:55.093Z,69.86
2022-08-22T05:22:27.950Z,70.27
2022-08-22T05:25:01.928Z,69.90
2022-08-22T05:27:41.650Z,69.59
2022-08-22T05:30:12.384Z,69.51
2022-08-22T05:32:51.977Z,69.68
2022-08-22T05:35:24.832Z,69.59
2022-08-22T05:37:54.398Z,69.34
2022-08-22T05:40:24.863Z,69.44
2022-08-22T05:42:53.556Z,69.04
2022-08-22T05:45:22.524Z,69.24
2022-08-22T05:47:57.539Z,69.48
2022-08-22T05:50:41.712Z,68.91
2022-08-22T05:53:17.408Z,68.98
2022-08-22T05:56:18.438Z,68.78
2022-08-22T05:59:13.708Z,68.66
2022-08-22T06:01:59.626Z,68.79
2022-08-22T06:04:35.067Z,68.48
2022-08-22T06:07:10.096Z,68.58
2022-08-22T06:09:57.974Z,68.31
2022-08-22T06:12:33.524Z,68.37
2022-08-22T06:15:20.964Z,68.36
2022-08-22T06:17:50.776Z,68.22
2022-08-22T06:20:24.560Z,67.81
2022-08-22T06:22:55.820Z,67.63
2022-08-22T06:25:26.752Z,67.12
2022-08-22T06:27:54.379Z,66.59
2022-08-22T06:30:22.065Z,66.38
2022-08-22T06:33:00.034Z,66.33
2022-08-22T06:35:33.562Z,65.86
2022-08-22T06:38:00.706Z,66.53
2022-08-22T06:40:29.314Z,65.84
2022-08-22T06:42:57.455Z,65.90
2022-08-22T06:45:31.762Z,65.39
2022-08-22T06:48:07.259Z,65.29
2022-08-22T06:50:40.995Z,65.23
2022-08-22T06:53:34.527Z,65.11
2022-08-22T06:56:03.611Z,64.85
2022-08-22T06:58:34.796Z,62.98
2022-08-22T07:01:24.882Z,62.91
2022-08-22T07:04:04.946Z,62.75
2022-08-22T07:06:44.129Z,63.08
2022-08-22T07:09:27.502Z,63.15
2022-08-22T07:11:57.398Z,63.17
2022-08-22T07:14:32.354Z,62.84
2022-08-22T07:17:04.718Z,62.48
2022-08-22T07:19:35.963Z,61.72
2022-08-22T07:22:23.476Z,62.12
2022-08-22T07:25:03.194Z,62.31
2022-08-22T07:28:01.375Z,61.99
2022-08-22T07:30:42.461Z,61.88
2022-08-22T07:33:38.966Z,61.27
2022-08-22T07:36:22.987Z,61.02
2022-08-22T07:39:02.279Z,61.18
2022-08-22T07:41:58.473Z,60.16
2022-08-22T07:44:32.538Z,59.46
2022-08-22T07:47:07.068Z,57.95
2022-08-22T07:49:57.553Z,58.21
2022-08-22T07:52:26.051Z,58.21
2022-08-22T07:55:20.533Z,58.04
2022-08-22T07:57:53.876Z,57.98
2022-08-22T08:00:22.689Z,57.78
2022-08-22T08:02:57.521Z,57.13
2022-08-22T08:05:26.814Z,57.16
2022-08-22T08:07:56.173Z,56.55
2022-08-22T08:10:28.133Z,56.74
2022-08-22T08:13:02.464Z,56.49
2022-08-22T08:15:31.800Z,56.24
2022-08-22T08:18:04.316Z,56.06
2022-08-22T08:20:34.332Z,55.16
2022-08-22T08:23:01.646Z,55.33
2022-08-22T08:25:30.953Z,55.04
2022-08-22T08:27:59.462Z,53.07
2022-08-22T08:30:38.699Z,53.09
2022-08-22T08:33:25.195Z,53.36
2022-08-22T08:36:09.423Z,53.05
2022-08-22T08:38:45.395Z,53.03
2022-08-22T08:41:31.914Z,52.42
2022-08-22T08:44:01.189Z,51.04
2022-08-22T08:46:55.559Z,51.70
2022-08-22T08:49:38.779Z,52.15
2022-08-22T08:52:24.420Z,50.50
2022-08-22T08:55:01.527Z,51.16
2022-08-22T08:57:44.658Z,51.22
2022-08-22T09:00:20.018Z,49.59
2022-08-22T09:02:49.410Z,48.25
2022-08-22T09:05:30.975Z,46.62
2022-08-22T09:08:19.418Z,45.46
2022-08-22T09:11:09.820Z,46.08
2022-08-22T09:14:19.910Z,45.60
2022-08-22T09:17:04.624Z,43.09
2022-08-22T09:20:17.719Z,42.20
2022-08-22T09:22:50.708Z,41.55
2022-08-22T09:25:41.246Z,41.15
2022-08-22T09:28:23.135Z,40.43
2022-08-22T09:31:17.014Z,37.63
2022-08-22T09:34:05.135Z,37.49
2022-08-22T09:37:00.928Z,36.43
2022-08-22T09:40:04.779Z,36.74
2022-08-22T09:42:40.366Z,33.73
2022-08-22T09:45:11.325Z,34.46
2022-08-22T09:47:58.126Z,33.78
2022-08-22T09:50:56.468Z,31.50
2022-08-22T09:54:10.590Z,32.49
2022-08-22T09:56:52.078Z,32.92
2022-08-22T09:59:28.417Z,33.91
2022-08-22T10:02:15.656Z,34.23
2022-08-22T10:04:48.919Z,33.66
2022-08-22T10:07:35.143Z,35.18
2022-08-22T10:10:13.040Z,34.79
2022-08-22T10:12:58.854Z,33.39
2022-08-22T10:15:42.705Z,33.63
2022-08-22T10:18:31.623Z,35.02
2022-08-22T10:21:25.068Z,34.08
2022-08-22T10:24:25.338Z,33.66
2022-08-22T10:27:07.142Z,33.41
2022-08-22T10:29:52.819Z,34.21
2022-08-22T10:32:34.392Z,35.01
2022-08-22T10:35:33.750Z,33.82
2022-08-22T10:38:12.310Z,33.73
2022-08-22T10:40:53.285Z,33.04
2022-08-22T10:43:29.091Z,32.96
2022-08-22T10:46:12.557Z,34.11
2022-08-22T10:48:56.257Z,33.67
2022-08-22T10:51:49.441Z,34.13
2022-08-22T10:54:42.000Z,32.21
2022-08-22T10:57:23.080Z,32.83
2022-08-22T11:00:15.848Z,32.63
2022-08-22T11:03:27.699Z,32.80
2022-08-22T11:06:22.242Z,34.28
2022-08-22T11:09:04.611Z,33.91
2022-08-22T11:11:39.667Z,33.24
2022-08-22T11:14:17.689Z,33.24
2022-08-22T11:17:01.732Z,33.82
2022-08-22T11:20:23.719Z,33.87
2022-08-22T11:23:19.387Z,33.71
2022-08-22T11:26:29.925Z,33.49
2022-08-22T11:29:23.196Z,32.98
2022-08-22T11:32:16.476Z,34.29
2022-08-22T11:35:13.760Z,33.73
2022-08-22T11:38:00.548Z,34.20
2022-08-22T11:40:46.058Z,32.91
2022-08-22T11:43:32.518Z,32.39
2022-08-22T11:46:04.652Z,33.34
2022-08-22T11:49:04.514Z,31.89
2022-08-22T11:52:08.616Z,32.49
2022-08-22T11:54:45.852Z,35.01
2022-08-22T11:57:18.633Z,33.80
2022-08-22T11:59:44.925Z,33.76
2022-08-22T12:02:19.606Z,32.42
2022-08-22T12:04:55.738Z,31.57
2022-08-22T12:07:33.237Z,31.02
2022-08-22T12:10:15.278Z,31.47
2022-08-22T12:13:03.301Z,31.42
2022-08-22T12:15:46.202Z,32.00
2022-08-22T12:18:41.254Z,32.81
2022-08-22T12:21:22.673Z,32.54
2022-08-22T12:24:00.957Z,31.37
2022-08-22T12:27:10.506Z,31.57
2022-08-22T12:30:04.825Z,31.42
2022-08-22T12:32:58.870Z,31.31
2022-08-22T12:35:38.295Z,31.13
2022-08-22T12:38:28.947Z,31.58
2022-08-22T12:41:35.534Z,30.60
2022-08-22T12:44:19.599Z,30.06
2022-08-22T12:47:21.330Z,30.74
2022-08-22T12:50:21.654Z,30.33
2022-08-22T12:53:09.110Z,29.52
2022-08-22T12:55:52.765Z,29.55
2022-08-22T12:58:51.944Z,29.97
2022-08-22T13:01:19.343Z,29.36
2022-08-22T13:03:56.858Z,29.82
2022-08-22T13:06:35.141Z,29.26
2022-08-22T13:09:37.420Z,29.07
2022-08-22T13:12:31.084Z,29.01
2022-08-22T13:15:06.778Z,28.82
2022-08-22T13:17:37.532Z,29.05
2022-08-22T13:20:32.832Z,28.62
2022-08-22T13:23:05.149Z,27.69
2022-08-22T13:26:01.182Z,28.24
2022-08-22T13:28:30.154Z,28.58
2022-08-22T13:30:58.415Z,29.93
2022-08-22T13:33:33.013Z,28.45
2022-08-22T13:36:10.838Z,28.57
2022-08-22T13:38:49.178Z,28.58
2022-08-22T13:41:29.032Z,28.41
2022-08-22T13:44:33.312Z,28.80
2022-08-22T13:47:14.138Z,28.66
2022-08-22T13:49:46.646Z,29.10
2022-08-22T13:52:29.073Z,28.83
2022-08-22T13:55:12.448Z,28.14
2022-08-22T13:58:03.156Z,28.81
2022-08-22T14:00:58.170Z,28.60
2022-08-22T14:03:35.016Z,28.39
2022-08-22T14:06:37.171Z,27.77
2022-08-22T14:09:03.554Z,28.16
2022-08-22T14:11:49.132Z,27.15
2022-08-22T14:14:27.878Z,27.39
2022-08-22T14:16:59.273Z,27.82
2022-08-22T14:19:52.916Z,27.48
2022-08-22T14:22:32.552Z,27.49
2022-08-22T14:25:18.861Z,27.24
2022-08-22T14:27:51.150Z,27.77
2022-08-22T14:30:21.320Z,27.97
2022-08-22T14:32:56.232Z,27.30
2022-08-22T14:35:41.304Z,27.34
2022-08-22T14:38:17.216Z,27.49
2022-08-22T14:40:45.534Z,26.61
2022-08-22T14:43:25.155Z,27.23
2022-08-22T14:46:05.674Z,27.46
2022-08-22T14:48:43.728Z,28.02
2022-08-22T14:51:19.876Z,27.97
2022-08-22T14:53:47.747Z,27.87
2022-08-22T14:56:29.536Z,27.30
2022-08-22T14:59:08.478Z,27.26
2022-08-22T15:01:54.542Z,27.49
2022-08-22T15:04:40.992Z,27.19
2022-08-22T15:07:09.507Z,27.70
2022-08-22T15:09:43.276Z,27.35
2022-08-22T15:12:33.973Z,27.03
2022-08-22T15:15:04.833Z,27.26
2022-08-22T15:17:45.155Z,26.88
2022-08-22T15:20:27.633Z,27.36
2022-08-22T15:23:10.205Z,27.23
2022-08-22T15:25:41.263Z,26.87
2022-08-22T15:28:20.065Z,26.79
2022-08-22T15:30:59.241Z,27.60
2022-08-22T15:33:39.528Z,26.57
2022-08-22T15:36:27.425Z,26.85
2022-08-22T15:39:28.449Z,26.72
2022-08-22T15:41:56.779Z,26.50
2022-08-22T15:44:31.117Z,26.38
2022-08-22T15:47:24.169Z,26.60
2022-08-22T15:50:00.220Z,26.52
2022-08-22T15:52:33.006Z,26.28
2022-08-22T15:55:15.717Z,26.59
2022-08-22T15:57:50.955Z,26.54
2022-08-22T16:00:24.086Z,26.60
2022-08-22T16:03:04.623Z,26.69
2022-08-22T16:05:33.766Z,26.94
2022-08-22T16:08:03.270Z,26.73
2022-08-22T16:10:37.437Z,26.99
2022-08-22T16:13:37.991Z,26.86
2022-08-22T16:16:06.905Z,27.38
2022-08-22T16:18:33.185Z,27.56
2022-08-22T16:21:08.889Z,27.66
2022-08-22T16:23:50.529Z,27.81
2022-08-22T16:26:23.546Z,28.11
2022-08-22T16:28:59.633Z,28.46
2022-08-22T16:31:44.567Z,28.29
2022-08-22T16:34:17.059Z,28.58
2022-08-22T16:37:12.573Z,28.62
2022-08-22T16:39:46.498Z,28.82
2022-08-22T16:42:12.844Z,28.77
2022-08-22T16:44:45.586Z,28.95
2022-08-22T16:47:30.228Z,28.80
2022-08-22T16:50:17.601Z,28.89
2022-08-22T16:53:00.154Z,29.36
2022-08-22T16:55:29.492Z,29.43
2022-08-22T16:58:07.249Z,29.43
2022-08-22T17:00:37.094Z,29.53
2022-08-22T17:03:09.470Z,29.75
2022-08-22T17:05:51.143Z,29.97
2022-08-22T17:08:47.718Z,29.83
2022-08-22T17:11:52.683Z,30.17
2022-08-22T17:14:47.426Z,29.87
2022-08-22T17:17:31.852Z,30.27
2022-08-22T17:20:22.258Z,30.66
2022-08-22T17:23:06.582Z,30.52
2022-08-22T17:25:46.428Z,30.80
2022-08-22T17:28:36.863Z,31.14
2022-08-22T17:31:31.702Z,30.82
2022-08-22T17:34:20.032Z,30.57
2022-08-22T17:37:08.542Z,30.97
2022-08-22T17:40:15.818Z,31.05
2022-08-22T17:42:54.184Z,31.14
2022-08-22T17:45:43.052Z,30.97
2022-08-22T17:48:19.658Z,31.48
2022-08-22T17:50:55.495Z,31.94
2022-08-22T17:53:27.570Z,32.20
2022-08-22T17:55:57.172Z,32.23
2022-08-22T17:58:37.619Z,32.80
2022-08-22T18:01:34.507Z,32.90
2022-08-22T18:04:03.681Z,33.06
2022-08-22T18:06:36.262Z,33.35
2022-08-22T18:09:16.274Z,33.08
2022-08-22T18:11:51.938Z,32.91
2022-08-22T18:14:30.029Z,33.31
2022-08-22T18:16:58.333Z,33.62
2022-08-22T18:20:02.466Z,34.04
2022-08-22T18:22:56.563Z,34.01
2022-08-22T18:25:22.978Z,34.45
2022-08-22T18:28:08.720Z,34.44
2022-08-22T18:30:48.959Z,34.81
2022-08-22T18:33:34.626Z,35.02
2022-08-22T18:36:10.668Z,35.13
2022-08-22T18:38:57.636Z,35.13
2022-08-22T18:41:36.590Z,35.51
2022-08-22T18:44:22.931Z,35.78
2022-08-22T18:46:57.985Z,35.99
2022-08-22T18:49:24.610Z,36.27
2022-08-22T18:52:05.993Z,36.10
2022-08-22T18:55:00.270Z,36.10
2022-08-22T18:57:49.671Z,36.60
2022-08-22T19:00:22.262Z,36.63
2022-08-22T19:03:03.650Z,36.84
2022-08-22T19:06:01.599Z,36.89
2022-08-22T19:08:56.401Z,37.04
2022-08-22T19:11:33.833Z,37.24
2022-08-22T19:14:16.349Z,37.50
2022-08-22T19:16:53.713Z,37.57
2022-08-22T19:19:58.684Z,37.88
2022-08-22T19:22:32.317Z,38.21
2022-08-22T19:25:11.523Z,38.23
2022-08-22T19:27:41.616Z,38.68
2022-08-22T19:30:33.626Z,38.90
2022-08-22T19:33:07.810Z,39.37
2022-08-22T19:36:04.931Z,39.28
2022-08-22T19:38:54.624Z,39.94
2022-08-22T19:41:40.062Z,40.05
2022-08-22T19:44:37.403Z,40.22
2022-08-22T19:47:19.116Z,40.47
2022-08-22T19:49:54.541Z,40.77
2022-08-22T19:52:30.239Z,40.89
2022-08-22T19:55:23.611Z,40.89
2022-08-22T19:57:53.240Z,40.86
2022-08-22T20:00:24.614Z,40.91
2022-08-22T20:03:21.878Z,41.47
2022-08-22T20:06:43.123Z,41.74
2022-08-22T20:09:26.910Z,41.79
2022-08-22T20:12:06.913Z,42.19
2022-08-22T20:14:36.083Z,41.92
2022-08-22T20:17:23.988Z,42.23
2022-08-22T20:20:35.149Z,42.29
2022-08-22T20:23:22.865Z,42.55
2022-08-22T20:25:52.189Z,42.75
2022-08-22T20:28:27.657Z,42.82
2022-08-22T20:30:59.497Z,42.67
2022-08-22T20:33:33.951Z,43.04
2022-08-22T20:36:13.797Z,43.48
2022-08-22T20:38:56.604Z,43.49
2022-08-22T20:41:32.353Z,43.85
2022-08-22T20:44:10.259Z,44.61
2022-08-22T20:46:53.497Z,44.81
2022-08-22T20:49:24.796Z,45.07
2022-08-22T20:52:01.525Z,44.90
2022-08-22T20:54:37.313Z,45.06
2022-08-22T20:57:13.370Z,45.35
2022-08-22T20:59:49.061Z,45.50
2022-08-22T21:02:23.179Z,45.93
2022-08-22T21:05:00.228Z,46.10
2022-08-22T21:07:28.330Z,46.05
2022-08-22T21:09:57.945Z,46.75
2022-08-22T21:12:24.443Z,46.78
2022-08-22T21:14:50.791Z,47.19
2022-08-22T21:17:17.171Z,47.08
2022-08-22T21:19:43.636Z,47.05
2022-08-22T21:22:28.846Z,47.56
2022-08-22T21:24:57.256Z,47.49
2022-08-22T21:27:31.468Z,47.39
2022-08-22T21:30:01.898Z,47.43
2022-08-22T21:32:36.554Z,47.76
2022-08-22T21:35:05.518Z,47.95
2022-08-22T21:37:44.843Z,48.22
2022-08-22T21:40:21.395Z,48.89
2022-08-22T21:43:05.085Z,48.73
2022-08-22T21:45:37.308Z,48.81
2022-08-22T21:48:34.223Z,49.43
2022-08-22T21:51:37.907Z,49.80
2022-08-22T21:54:26.401Z,49.95
2022-08-22T21:56:55.378Z,50.40
2022-08-22T21:59:50.968Z,50.43
2022-08-22T22:02:37.035Z,50.65
2022-08-22T22:05:11.322Z,51.61
2022-08-22T22:07:40.963Z,51.60
2022-08-22T22:10:10.116Z,51.56
2022-08-22T22:12:39.655Z,51.36
2022-08-22T22:15:06.713Z,52.07
2022-08-22T22:17:33.293Z,52.64
2022-08-22T22:19:59.892Z,52.57
2022-08-22T22:22:26.537Z,53.07
2022-08-22T22:24:52.945Z,53.13
2022-08-22T22:27:19.285Z,52.97
2022-08-22T22:29:45.661Z,53.12
2022-08-22T22:32:12.361Z,53.43
2022-08-22T22:34:38.784Z,53.82
2022-08-22T22:37:07.551Z,54.10
2022-08-22T22:39:35.938Z,54.35
2022-08-22T22:42:03.376Z,54.70
2022-08-22T22:44:29.797Z,55.00
2022-08-22T22:46:57.624Z,54.94
2022-08-22T22:49:24.434Z,55.29
2022-08-22T22:51:50.917Z,55.83
2022-08-22T22:54:17.497Z,55.16
2022-08-22T22:56:44.164Z,55.14
2022-08-22T22:59:14.702Z,55.27
2022-08-22T23:02:21.603Z,55.58
2022-08-22T23:04:50.864Z,55.67
2022-08-22T23:07:22.306Z,55.66
2022-08-22T23:09:48.887Z,55.81
2022-08-22T23:12:16.134Z,55.84
2022-08-22T23:14:42.827Z,55.86
2022-08-22T23:17:09.262Z,55.93
2022-08-22T23:19:35.883Z,55.79
2022-08-22T23:22:02.344Z,56.24
2022-08-22T23:24:30.446Z,56.30
2022-08-22T23:26:57.509Z,56.44
2022-08-22T23:29:24.661Z,56.81
2022-08-22T23:32:02.177Z,56.85
2022-08-22T23:34:35.745Z,56.73
2022-08-22T23:37:06.431Z,56.30
2022-08-22T23:39:34.590Z,56.56
2022-08-22T23:42:02.213Z,56.57
2022-08-22T23:44:31.393Z,56.40
2022-08-22T23:46:58.813Z,56.27
2022-08-22T23:49:26.455Z,55.94
2022-08-22T23:51:53.011Z,56.05
2022-08-22T23:54:19.506Z,56.30
2022-08-22T23:56:49.533Z,56.62
2022-08-22T23:59:19.117Z,56.48
